createdAt,value
2018-12-14T00:00:33.800Z,3.17
2018-12-14T00:02:59.929Z,3.22
2018-12-14T00:05:26.070Z,3.12
2018-12-14T00:07:52.246Z,2.88
2018-12-14T00:10:18.377Z,2.93
2018-12-14T00:12:44.513Z,2.88
2018-12-14T00:15:10.681Z,2.85
2018-12-14T00:17:36.837Z,2.80
2018-12-14T00:20:04.635Z,2.81
2018-12-14T00:22:30.797Z,2.78
2018-12-14T00:24:56.936Z,2.87
2018-12-14T00:27:23.415Z,2.89
2018-12-14T00:29:49.829Z,2.90
2018-12-14T00:32:16.518Z,3.05
2018-12-14T00:34:42.664Z,3.08
2018-12-14T00:37:08.844Z,3.00
2018-12-14T00:39:34.984Z,2.98
2018-12-14T00:42:01.145Z,3.07
2018-12-14T00:44:27.316Z,2.93
2018-12-14T00:46:53.465Z,2.81
2018-12-14T00:49:19.607Z,2.64
2018-12-14T00:51:45.833Z,2.46
2018-12-14T00:54:11.976Z,2.70
2018-12-14T00:56:38.109Z,2.86
2018-12-14T00:59:04.290Z,2.95
2018-12-14T01:01:30.414Z,3.06
2018-12-14T01:03:56.565Z,3.13
2018-12-14T01:06:22.767Z,3.23
2018-12-14T01:08:48.904Z,3.39
2018-12-14T01:11:15.223Z,3.54
2018-12-14T01:13:41.421Z,3.66
2018-12-14T01:16:07.595Z,3.56
2018-12-14T01:18:33.858Z,3.57
2018-12-14T01:21:00.037Z,3.70
2018-12-14T01:23:26.173Z,3.72
2018-12-14T01:25:52.328Z,3.83
2018-12-14T01:28:18.497Z,3.71
2018-12-14T01:30:44.661Z,3.60
2018-12-14T01:33:10.817Z,3.67
2018-12-14T01:35:37.006Z,3.74
2018-12-14T01:38:03.169Z,3.83
2018-12-14T01:40:29.322Z,3.97
2018-12-14T01:42:55.482Z,4.06
2018-12-14T01:45:21.633Z,4.21
2018-12-14T01:47:47.774Z,4.20
2018-12-14T01:50:13.949Z,4.36
2018-12-14T01:52:40.333Z,4.61
2018-12-14T01:55:06.747Z,4.83
2018-12-14T01:57:32.960Z,4.98
2018-12-14T01:59:59.103Z,5.04
2018-12-14T02:02:25.248Z,4.91
2018-12-14T02:04:51.401Z,4.64
2018-12-14T02:07:17.525Z,4.76
2018-12-14T02:09:43.673Z,4.68
2018-12-14T02:12:11.512Z,4.72
2018-12-14T02:14:38.017Z,4.67
2018-12-14T02:17:04.176Z,4.64
2018-12-14T02:19:30.337Z,4.64
2018-12-14T02:21:56.461Z,4.62
2018-12-14T02:24:22.618Z,4.74
2018-12-14T02:26:48.793Z,4.82
2018-12-14T02:29:14.954Z,4.64
2018-12-14T02:31:41.107Z,4.70
2018-12-14T02:34:07.261Z,4.82
2018-12-14T02:36:33.422Z,4.89
2018-12-14T02:38:59.566Z,4.92
2018-12-14T02:41:25.751Z,4.98
2018-12-14T02:43:52.128Z,5.07
2018-12-14T02:46:18.261Z,5.01
2018-12-14T02:48:44.421Z,4.96
2018-12-14T02:51:10.608Z,4.88
2018-12-14T02:53:36.834Z,4.92
2018-12-14T02:56:03.002Z,4.88
2018-12-14T02:58:29.138Z,4.91
2018-12-14T03:00:55.284Z,4.93
2018-12-14T03:03:21.458Z,4.91
2018-12-14T03:05:47.608Z,4.91
2018-12-14T03:08:13.774Z,4.69
2018-12-14T03:10:39.982Z,4.44
2018-12-14T03:13:06.242Z,4.37
2018-12-14T03:15:32.382Z,4.50
2018-12-14T03:17:58.547Z,4.62
2018-12-14T03:20:24.725Z,4.68
2018-12-14T03:22:50.851Z,4.75
2018-12-14T03:25:17.010Z,4.73
2018-12-14T03:27:43.164Z,4.77
2018-12-14T03:30:09.492Z,4.66
2018-12-14T03:32:35.805Z,4.73
2018-12-14T03:35:03.123Z,4.79
2018-12-14T03:37:29.250Z,4.93
2018-12-14T03:39:55.425Z,5.01
2018-12-14T03:42:21.581Z,4.98
2018-12-14T03:44:47.730Z,4.94
2018-12-14T03:47:13.893Z,5.07
2018-12-14T03:49:40.024Z,5.00
2018-12-14T03:52:06.162Z,4.77
2018-12-14T03:54:32.328Z,4.82
2018-12-14T03:56:58.447Z,4.79
2018-12-14T03:59:24.589Z,4.72
2018-12-14T04:01:50.754Z,4.61
2018-12-14T04:04:16.897Z,4.44
2018-12-14T04:06:43.055Z,4.56
2018-12-14T04:09:09.237Z,4.12
2018-12-14T04:11:35.361Z,3.51
2018-12-14T04:14:01.532Z,3.45
2018-12-14T04:16:27.693Z,3.20
2018-12-14T04:18:53.833Z,2.93
2018-12-14T04:21:19.980Z,2.75
2018-12-14T04:23:46.163Z,2.81
2018-12-14T04:26:12.312Z,2.92
2018-12-14T04:28:38.438Z,3.29
2018-12-14T04:31:04.663Z,3.42
2018-12-14T04:33:31.146Z,3.40
2018-12-14T04:35:57.524Z,3.40
2018-12-14T04:38:23.717Z,3.41
2018-12-14T04:40:49.880Z,3.17
2018-12-14T04:43:16.019Z,3.35
2018-12-14T04:45:42.210Z,3.36
2018-12-14T04:48:08.392Z,3.29
2018-12-14T04:50:34.529Z,2.89
2018-12-14T04:53:00.710Z,2.97
2018-12-14T04:55:26.853Z,3.03
2018-12-14T04:57:53.010Z,3.24
2018-12-14T05:00:19.197Z,3.33
2018-12-14T05:02:45.412Z,3.41
2018-12-14T05:05:11.644Z,3.61
2018-12-14T05:07:37.835Z,3.67
2018-12-14T05:10:04.738Z,3.70
2018-12-14T05:12:30.878Z,3.81
2018-12-14T05:14:57.082Z,3.80
2018-12-14T05:17:23.361Z,3.61
2018-12-14T05:19:49.508Z,3.83
2018-12-14T05:22:15.696Z,3.85
2018-12-14T05:24:41.862Z,3.89
2018-12-14T05:27:08.442Z,3.88
2018-12-14T05:29:34.630Z,4.19
2018-12-14T05:32:00.782Z,4.41
2018-12-14T05:34:26.928Z,4.41
2018-12-14T05:36:53.113Z,4.40
2018-12-14T05:39:19.245Z,4.46
2018-12-14T05:41:45.384Z,4.43
2018-12-14T05:44:11.580Z,4.61
2018-12-14T05:46:37.825Z,4.68
2018-12-14T05:49:03.944Z,4.90
2018-12-14T05:51:30.090Z,5.08
2018-12-14T05:53:56.231Z,5.15
2018-12-14T05:56:22.917Z,5.25
2018-12-14T05:58:49.112Z,5.13
2018-12-14T06:01:15.263Z,4.87
2018-12-14T06:03:41.407Z,5.04
2018-12-14T06:06:07.589Z,5.15
2018-12-14T06:08:33.709Z,5.29
2018-12-14T06:10:59.862Z,5.30
2018-12-14T06:13:26.026Z,5.16
2018-12-14T06:15:52.167Z,5.12
2018-12-14T06:18:18.342Z,5.14
2018-12-14T06:20:44.508Z,4.93
2018-12-14T06:23:10.676Z,4.77
2018-12-14T06:25:36.834Z,4.65
2018-12-14T06:28:03.022Z,5.05
2018-12-14T06:30:29.172Z,5.08
2018-12-14T06:32:55.293Z,5.39
2018-12-14T06:35:21.489Z,5.86
2018-12-14T06:37:47.628Z,6.02
2018-12-14T06:40:13.772Z,6.32
2018-12-14T06:42:39.937Z,6.61
2018-12-14T06:45:07.080Z,6.87
2018-12-14T06:47:33.255Z,6.89
2018-12-14T06:49:59.438Z,6.95
2018-12-14T06:52:25.597Z,7.10
2018-12-14T06:54:51.746Z,6.90
2018-12-14T06:57:17.916Z,6.92
2018-12-14T06:59:44.126Z,6.99
2018-12-14T07:02:10.372Z,6.54
2018-12-14T07:04:36.545Z,6.39
2018-12-14T07:07:04.227Z,6.30
2018-12-14T07:09:30.741Z,6.39
2018-12-14T07:11:56.928Z,6.73
2018-12-14T07:14:23.063Z,7.18
2018-12-14T07:16:49.201Z,7.47
2018-12-14T07:19:15.389Z,7.83
2018-12-14T07:21:41.519Z,8.03
2018-12-14T07:24:07.917Z,8.19
2018-12-14T07:26:34.640Z,8.25
2018-12-14T07:29:01.269Z,8.11
2018-12-14T07:31:27.549Z,8.04
2018-12-14T07:33:53.717Z,7.47
2018-12-14T07:36:19.933Z,7.23
2018-12-14T07:38:48.215Z,7.45
2018-12-14T07:41:14.385Z,7.84
2018-12-14T07:43:40.541Z,8.16
2018-12-14T07:46:06.677Z,8.05
2018-12-14T07:48:32.853Z,7.76
2018-12-14T07:50:59.000Z,8.30
2018-12-14T07:53:25.281Z,8.65
2018-12-14T07:55:51.457Z,8.30
2018-12-14T07:58:17.612Z,8.71
2018-12-14T08:00:43.776Z,9.14
2018-12-14T08:03:10.000Z,8.92
2018-12-14T08:05:36.137Z,9.15
2018-12-14T08:08:02.267Z,9.43
2018-12-14T08:10:28.448Z,9.54
2018-12-14T08:12:54.921Z,9.79
2018-12-14T08:15:21.242Z,10.36
2018-12-14T08:17:47.409Z,10.14
2018-12-14T08:20:17.150Z,10.14
2018-12-14T08:22:41.722Z,10.30
2018-12-14T08:25:07.950Z,10.65
2018-12-14T08:27:34.102Z,10.84
2018-12-14T08:30:00.285Z,10.90
2018-12-14T08:32:26.489Z,10.61
2018-12-14T08:34:52.657Z,9.97
2018-12-14T08:37:18.793Z,9.62
2018-12-14T08:39:44.945Z,9.64
2018-12-14T08:42:11.068Z,10.03
2018-12-14T08:44:37.229Z,10.33
2018-12-14T08:47:03.405Z,10.13
2018-12-14T08:49:29.563Z,9.37
2018-12-14T08:51:55.704Z,9.16
2018-12-14T08:54:21.886Z,9.68
2018-12-14T08:56:48.025Z,9.47
2018-12-14T08:59:14.153Z,9.23
2018-12-14T09:01:40.338Z,9.10
2018-12-14T09:04:06.497Z,9.51
2018-12-14T09:06:32.651Z,9.06
2018-12-14T09:08:58.829Z,9.32
2018-12-14T09:11:24.993Z,9.52
2018-12-14T09:13:51.135Z,10.03
2018-12-14T09:16:17.313Z,9.87
2018-12-14T09:18:43.449Z,9.43
2018-12-14T09:21:09.616Z,8.98
2018-12-14T09:23:35.809Z,9.46
2018-12-14T09:26:02.085Z,9.37
2018-12-14T09:28:28.207Z,9.11
2018-12-14T09:30:54.359Z,9.23
2018-12-14T09:33:20.510Z,8.97
2018-12-14T09:35:46.647Z,9.35
2018-12-14T09:38:12.838Z,9.78
2018-12-14T09:40:38.982Z,9.93
2018-12-14T09:43:05.185Z,9.54
2018-12-14T09:45:31.407Z,8.87
2018-12-14T09:47:57.586Z,8.89
2018-12-14T09:50:23.725Z,8.92
2018-12-14T09:52:49.873Z,9.57
2018-12-14T09:55:15.997Z,9.88
2018-12-14T09:57:42.165Z,10.26
2018-12-14T10:00:08.665Z,10.41
2018-12-14T10:02:34.798Z,10.51
2018-12-14T10:05:00.934Z,10.43
2018-12-14T10:07:27.118Z,10.94
2018-12-14T10:09:53.274Z,11.06
2018-12-14T10:12:26.453Z,11.60
2018-12-14T10:14:52.613Z,11.60
2018-12-14T10:17:18.777Z,11.02
2018-12-14T10:19:44.909Z,10.72
2018-12-14T10:22:11.070Z,10.65
2018-12-14T10:24:37.197Z,10.91
2018-12-14T10:27:03.346Z,11.33
2018-12-14T10:29:29.517Z,11.59
2018-12-14T10:31:55.656Z,11.23
2018-12-14T10:34:21.784Z,10.84
2018-12-14T10:36:47.987Z,11.32
2018-12-14T10:39:14.149Z,11.13
2018-12-14T10:41:40.320Z,11.17
2018-12-14T10:44:07.497Z,11.06
2018-12-14T10:46:34.193Z,10.60
2018-12-14T10:49:00.377Z,10.31
2018-12-14T10:51:26.623Z,10.82
2018-12-14T10:53:52.773Z,11.18
2018-12-14T10:56:18.937Z,11.49
2018-12-14T10:58:45.112Z,11.73
2018-12-14T11:01:17.285Z,12.24
2018-12-14T11:03:43.408Z,11.96
2018-12-14T11:06:09.579Z,11.82
2018-12-14T11:08:35.714Z,11.83
2018-12-14T11:11:01.860Z,12.30
2018-12-14T11:13:28.031Z,12.50
2018-12-14T11:15:54.197Z,12.44
2018-12-14T11:18:20.333Z,12.35
2018-12-14T11:20:46.655Z,12.50
2018-12-14T11:23:16.882Z,12.95
2018-12-14T11:25:43.044Z,13.13
2018-12-14T11:28:09.225Z,13.04
2018-12-14T11:30:35.380Z,11.96
2018-12-14T11:33:01.538Z,11.69
2018-12-14T11:35:27.847Z,11.91
2018-12-14T11:37:54.075Z,12.37
2018-12-14T11:40:20.303Z,12.17
2018-12-14T11:42:46.736Z,11.72
2018-12-14T11:45:12.901Z,11.65
2018-12-14T11:47:45.841Z,11.69
2018-12-14T11:50:12.012Z,11.69
2018-12-14T11:52:38.137Z,11.57
2018-12-14T11:55:06.072Z,11.64
2018-12-14T11:57:32.205Z,11.47
2018-12-14T11:59:58.324Z,11.47
2018-12-14T12:02:24.509Z,11.39
2018-12-14T12:04:50.663Z,11.30
2018-12-14T12:07:16.789Z,11.52
2018-12-14T12:09:42.954Z,11.71
2018-12-14T12:12:09.085Z,11.99
2018-12-14T12:14:35.222Z,11.99
2018-12-14T12:17:01.392Z,12.25
2018-12-14T12:19:27.573Z,12.39
2018-12-14T12:21:53.766Z,12.20
2018-12-14T12:24:19.926Z,12.39
2018-12-14T12:26:46.065Z,13.03
2018-12-14T12:29:12.212Z,12.94
2018-12-14T12:31:38.388Z,12.97
2018-12-14T12:34:04.513Z,12.95
2018-12-14T12:36:30.677Z,13.11
2018-12-14T12:38:56.856Z,12.30
2018-12-14T12:41:23.001Z,11.82
2018-12-14T12:43:49.157Z,11.88
2018-12-14T12:46:15.416Z,11.79
2018-12-14T12:48:41.843Z,12.23
2018-12-14T12:51:07.987Z,12.47
2018-12-14T12:53:34.161Z,12.63
2018-12-14T12:56:00.313Z,12.53
2018-12-14T12:58:26.458Z,12.47
2018-12-14T13:00:52.701Z,12.45
2018-12-14T13:03:19.011Z,11.63
2018-12-14T13:05:45.255Z,11.64
2018-12-14T13:08:11.441Z,11.42
2018-12-14T13:10:37.587Z,11.18
2018-12-14T13:13:03.854Z,11.09
2018-12-14T13:15:30.029Z,11.27
2018-12-14T13:17:56.173Z,11.12
2018-12-14T13:20:22.314Z,11.17
2018-12-14T13:22:48.533Z,11.12
2018-12-14T13:25:14.713Z,11.33
2018-12-14T13:27:40.845Z,10.83
2018-12-14T13:30:07.179Z,10.78
2018-12-14T13:32:33.309Z,10.65
2018-12-14T13:34:59.460Z,10.67
2018-12-14T13:37:25.622Z,10.77
2018-12-14T13:39:51.764Z,11.05
2018-12-14T13:42:17.915Z,11.17
2018-12-14T13:44:46.676Z,11.37
2018-12-14T13:47:12.429Z,11.52
2018-12-14T13:49:38.576Z,11.64
2018-12-14T13:52:04.752Z,11.51
2018-12-14T13:54:30.905Z,11.40
2018-12-14T13:56:57.060Z,11.23
2018-12-14T13:59:23.349Z,11.07
2018-12-14T14:01:49.517Z,10.50
2018-12-14T14:04:22.453Z,10.34
2018-12-14T14:06:48.629Z,10.53
2018-12-14T14:09:14.785Z,10.27
2018-12-14T14:11:40.930Z,10.19
2018-12-14T14:14:07.117Z,10.08
2018-12-14T14:16:33.261Z,10.27
2018-12-14T14:18:59.400Z,10.45
2018-12-14T14:21:25.570Z,10.52
2018-12-14T14:23:51.751Z,10.26
2018-12-14T14:26:17.881Z,10.05
2018-12-14T14:28:44.960Z,10.49
2018-12-14T14:31:11.209Z,10.56
2018-12-14T14:33:37.361Z,10.47
2018-12-14T14:36:03.537Z,10.47
2018-12-14T14:38:29.698Z,10.64
2018-12-14T14:40:55.841Z,10.54
2018-12-14T14:43:22.056Z,10.59
2018-12-14T14:45:48.201Z,10.63
2018-12-14T14:48:14.340Z,10.64
2018-12-14T14:50:40.503Z,10.59
2018-12-14T14:53:06.712Z,10.63
2018-12-14T14:55:32.833Z,10.72
2018-12-14T14:57:59.001Z,10.57
2018-12-14T15:00:32.497Z,10.64
2018-12-14T15:02:58.893Z,10.71
2018-12-14T15:05:25.047Z,10.72
2018-12-14T15:07:51.189Z,10.77
2018-12-14T15:10:17.397Z,10.88
2018-12-14T15:12:43.554Z,11.02
2018-12-14T15:15:09.763Z,11.06
2018-12-14T15:17:35.945Z,10.96
2018-12-14T15:20:02.242Z,10.80
2018-12-14T15:22:28.385Z,10.65
2018-12-14T15:24:54.905Z,10.63
2018-12-14T15:27:21.053Z,10.61
2018-12-14T15:29:47.220Z,10.65
2018-12-14T15:32:13.777Z,10.62
2018-12-14T15:34:39.920Z,10.42
2018-12-14T15:37:06.150Z,10.43
2018-12-14T15:39:32.358Z,10.36
2018-12-14T15:41:58.488Z,10.42
2018-12-14T15:44:24.612Z,10.52
2018-12-14T15:46:50.805Z,10.61
2018-12-14T15:49:16.961Z,10.53
2018-12-14T15:51:43.112Z,10.47
2018-12-14T15:54:09.327Z,10.46
2018-12-14T15:56:35.474Z,10.56
2018-12-14T15:59:01.622Z,10.58
2018-12-14T16:01:27.827Z,10.58
2018-12-14T16:03:53.975Z,10.58
2018-12-14T16:06:20.126Z,10.45
2018-12-14T16:08:46.323Z,10.23
2018-12-14T16:11:12.806Z,10.12
2018-12-14T16:13:38.971Z,10.06
2018-12-14T16:16:05.205Z,10.03
2018-12-14T16:18:31.493Z,9.98
2018-12-14T16:20:57.771Z,9.98
2018-12-14T16:23:24.099Z,9.94
2018-12-14T16:25:50.255Z,9.92
2018-12-14T16:28:17.280Z,9.91
2018-12-14T16:30:43.457Z,9.88
2018-12-14T16:33:09.715Z,9.87
2018-12-14T16:35:35.879Z,9.89
2018-12-14T16:38:02.078Z,9.87
2018-12-14T16:40:28.234Z,9.92
2018-12-14T16:42:54.378Z,9.97
2018-12-14T16:45:26.270Z,9.90
2018-12-14T16:47:48.717Z,9.87
2018-12-14T16:50:14.849Z,9.87
2018-12-14T16:52:41.019Z,9.83
2018-12-14T16:55:07.352Z,9.73
2018-12-14T16:57:33.540Z,9.55
2018-12-14T16:59:59.713Z,9.61
2018-12-14T17:02:25.994Z,9.64
2018-12-14T17:04:52.141Z,9.59
2018-12-14T17:07:18.383Z,9.58
2018-12-14T17:09:44.532Z,9.46
2018-12-14T17:12:10.723Z,9.46
2018-12-14T17:14:37.064Z,9.50
2018-12-14T17:17:03.258Z,9.54
2018-12-14T17:19:29.485Z,9.38
2018-12-14T17:21:55.669Z,9.39
2018-12-14T17:24:21.812Z,9.21
2018-12-14T17:26:48.060Z,8.87
2018-12-14T17:29:14.239Z,8.80
2018-12-14T17:31:40.397Z,8.87
2018-12-14T17:34:13.548Z,9.07
2018-12-14T17:36:39.841Z,9.01
2018-12-14T17:39:06.273Z,8.90
2018-12-14T17:41:32.521Z,9.02
2018-12-14T17:43:58.716Z,9.11
2018-12-14T17:46:24.870Z,9.06
2018-12-14T17:48:51.011Z,9.08
2018-12-14T17:51:17.205Z,9.13
2018-12-14T17:53:43.359Z,9.27
2018-12-14T17:56:09.557Z,9.36
2018-12-14T17:58:35.925Z,9.30
2018-12-14T18:01:02.151Z,9.07
2018-12-14T18:03:28.324Z,8.77
2018-12-14T18:05:54.499Z,8.74
2018-12-14T18:08:20.644Z,8.61
2018-12-14T18:10:47.029Z,8.63
2018-12-14T18:13:13.357Z,8.75
2018-12-14T18:15:46.168Z,8.91
2018-12-14T18:18:07.966Z,9.00
2018-12-14T18:20:34.157Z,9.05
2018-12-14T18:23:00.421Z,9.06
2018-12-14T18:25:26.584Z,9.20
2018-12-14T18:27:52.777Z,9.12
2018-12-14T18:30:18.936Z,8.87
2018-12-14T18:32:45.077Z,8.90
2018-12-14T18:35:11.371Z,8.77
2018-12-14T18:37:37.520Z,8.95
2018-12-14T18:40:05.613Z,8.92
2018-12-14T18:42:31.881Z,8.89
2018-12-14T18:44:58.120Z,8.84
2018-12-14T18:47:24.370Z,8.73
2018-12-14T18:49:50.582Z,8.32
2018-12-14T18:52:16.713Z,7.68
2018-12-14T18:54:42.872Z,8.09
2018-12-14T18:57:09.077Z,7.84
2018-12-14T18:59:35.480Z,7.59
2018-12-14T19:02:01.633Z,7.48
2018-12-14T19:04:27.788Z,7.54
2018-12-14T19:06:54.593Z,7.71
2018-12-14T19:09:20.740Z,8.13
2018-12-14T19:11:47.026Z,8.14
2018-12-14T19:14:13.285Z,8.08
2018-12-14T19:16:39.513Z,8.15
2018-12-14T19:19:05.676Z,8.24
2018-12-14T19:21:31.933Z,8.44
2018-12-14T19:23:58.197Z,8.67
2018-12-14T19:26:24.406Z,8.84
2018-12-14T19:28:51.867Z,8.90
2018-12-14T19:31:18.092Z,8.91
2018-12-14T19:33:44.308Z,8.96
2018-12-14T19:36:10.454Z,8.82
2018-12-14T19:38:36.633Z,8.82
2018-12-14T19:41:03.004Z,8.84
2018-12-14T19:43:29.130Z,8.92
2018-12-14T19:45:55.476Z,8.88
2018-12-14T19:48:21.653Z,8.95
2018-12-14T19:50:47.916Z,9.02
2018-12-14T19:53:14.045Z,8.99
2018-12-14T19:55:40.357Z,9.10
2018-12-14T19:58:06.581Z,9.16
2018-12-14T20:00:32.809Z,9.13
2018-12-14T20:02:59.275Z,9.05
2018-12-14T20:05:25.503Z,9.08
2018-12-14T20:07:51.658Z,9.10
2018-12-14T20:10:17.958Z,9.04
2018-12-14T20:12:44.153Z,8.99
2018-12-14T20:15:10.281Z,9.02
2018-12-14T20:17:36.609Z,9.07
2018-12-14T20:20:04.195Z,9.13
2018-12-14T20:22:30.333Z,8.95
2018-12-14T20:24:56.725Z,9.07
2018-12-14T20:27:22.952Z,9.11
2018-12-14T20:29:49.237Z,9.04
2018-12-14T20:32:15.613Z,9.04
2018-12-14T20:34:41.874Z,9.10
2018-12-14T20:37:08.015Z,8.99
2018-12-14T20:39:34.168Z,9.01
2018-12-14T20:42:00.353Z,8.96
2018-12-14T20:44:26.493Z,9.01
2018-12-14T20:46:52.777Z,9.18
2018-12-14T20:49:18.932Z,9.33
2018-12-14T20:51:45.234Z,9.45
2018-12-14T20:54:11.474Z,9.40
2018-12-14T20:56:37.624Z,9.25
2018-12-14T20:59:03.947Z,9.11
2018-12-14T21:01:30.142Z,9.11
2018-12-14T21:03:56.404Z,9.08
2018-12-14T21:06:22.599Z,9.05
2018-12-14T21:08:48.809Z,9.13
2018-12-14T21:11:14.942Z,9.25
2018-12-14T21:13:41.069Z,9.39
2018-12-14T21:16:07.234Z,9.33
2018-12-14T21:18:33.534Z,8.11
2018-12-14T21:20:59.677Z,7.88
2018-12-14T21:23:25.840Z,7.82
2018-12-14T21:25:52.043Z,7.98
2018-12-14T21:28:18.173Z,8.00
2018-12-14T21:30:44.360Z,8.03
2018-12-14T21:33:10.506Z,8.01
2018-12-14T21:35:36.637Z,7.83
2018-12-14T21:38:02.814Z,7.69
2018-12-14T21:40:29.000Z,7.75
2018-12-14T21:42:55.207Z,7.86
2018-12-14T21:45:21.456Z,7.92
2018-12-14T21:47:47.605Z,8.07
2018-12-14T21:50:13.873Z,8.34
2018-12-14T21:52:40.140Z,8.52
2018-12-14T21:55:06.421Z,8.60
2018-12-14T21:57:32.783Z,8.45
2018-12-14T21:59:58.949Z,8.44
2018-12-14T22:02:25.114Z,8.54
2018-12-14T22:04:51.447Z,8.43
2018-12-14T22:07:17.629Z,7.50
2018-12-14T22:09:43.941Z,7.58
2018-12-14T22:12:10.167Z,7.70
2018-12-14T22:14:36.320Z,6.85
2018-12-14T22:17:02.797Z,7.13
2018-12-14T22:19:28.936Z,7.39
2018-12-14T22:21:55.109Z,7.46
2018-12-14T22:24:21.257Z,7.51
2018-12-14T22:26:47.500Z,7.78
2018-12-14T22:29:13.744Z,7.95
2018-12-14T22:31:39.881Z,8.00
2018-12-14T22:34:06.200Z,7.99
2018-12-14T22:36:39.581Z,8.17
2018-12-14T22:39:06.217Z,8.20
2018-12-14T22:41:32.445Z,7.97
2018-12-14T22:43:58.672Z,7.80
2018-12-14T22:46:24.805Z,7.81
2018-12-14T22:48:51.131Z,7.76
2018-12-14T22:51:17.323Z,8.04
2018-12-14T22:53:43.473Z,7.95
2018-12-14T22:56:16.485Z,7.90
2018-12-14T22:58:42.797Z,7.81
2018-12-14T23:01:09.025Z,7.85
2018-12-14T23:03:35.172Z,8.07
2018-12-14T23:06:01.481Z,8.23
2018-12-14T23:08:27.634Z,8.33
2018-12-14T23:10:53.972Z,8.49
2018-12-14T23:13:20.148Z,8.47
2018-12-14T23:15:46.393Z,8.56
2018-12-14T23:18:12.657Z,8.49
2018-12-14T23:20:38.835Z,8.29
2018-12-14T23:23:05.077Z,8.25
2018-12-14T23:25:31.232Z,8.37
2018-12-14T23:27:57.529Z,8.21
2018-12-14T23:30:30.568Z,8.10
2018-12-14T23:32:56.694Z,7.92
2018-12-14T23:35:22.973Z,7.95
2018-12-14T23:37:49.128Z,7.88
2018-12-14T23:40:15.282Z,7.97
2018-12-14T23:42:41.470Z,8.15
2018-12-14T23:45:07.685Z,8.24
2018-12-14T23:47:33.940Z,8.19
2018-12-14T23:50:00.106Z,7.90
2018-12-14T23:52:26.397Z,7.85
2018-12-14T23:54:52.627Z,7.95
2018-12-14T23:57:18.801Z,7.95
2018-12-14T23:59:45.082Z,8.05
